• Join FlightAware (Why Join?)
  • Login
  • US Flag 
01:34AM EST


 

Airport Tracker/Info


-or-


 

Live Flight TrackerFlight Track Log ✈ AAL963 ✈ 21-Jan-2014 ✈ KDFW - SBGR / GRU

Flight Track Log - Related Links

Times and Time Zones

All times are in EST time to prevent confusion due to time zone crossing. See the AAL963 flight status page for this flight to view local times or setup timezone preferences in your user account.

Time Position Orientation Groundspeed Altitude Reporting Facility
EST Latitude Longitude Course Direction KTS MPH feet Rate Location/Type
09:49PM 32.8833 -97.0500 159° South 183 211 1,300  Level Dallas / Fort Worth TRACON
09:49PM 32.8652 -97.0511 181° South 186 214 1,900 1,560 Climbing FlightAware ADS-B
09:50PM 32.8250 -97.0524 181° South 233 268 2,900 2,160 Climbing FlightAware ADS-B (KAFW)
09:50PM 32.8167 -97.0500 180° South 240 276 3,700 2,760 Climbing Dallas / Fort Worth TRACON
09:51PM 32.7782 -97.0533 181° South 258 297 4,800 1,860 Climbing FlightAware ADS-B (KAFW)
09:51PM 32.7687 -97.0535 181° South 273 314 5,500 2,460 Climbing FlightAware ADS-B (KAFW)
09:52PM 32.7266 -97.0546 181° South 282 325 6,500 2,580 Climbing FlightAware ADS-B (KAFW)
09:52PM 32.6761 -97.0464 172° South 302 348 8,000 2,220 Climbing FlightAware ADS-B (KAFW)
09:52PM 32.6746 -97.0458 161° South 302 348 8,200 2,220 Climbing FlightAware ADS-B (KAFW)
09:55PM 32.4156 -96.8791 159° South  Level FlightAware Approximate
09:56PM 32.2804 -96.8161 180° South 451 519 17,200  Level FlightAware ADS-B (KHOU)
09:57PM 32.2145 -96.7885 160° South 454 522 18,500 2,220 Climbing FlightAware ADS-B (KHOU)
09:57PM 32.1524 -96.7649 162° South 466 536 19,500 2,100 Climbing FlightAware ADS-B (KHOU)
09:58PM 32.0900 -96.7413 162° South 472 543 20,600 2,100 Climbing FlightAware ADS-B (KHOU)
09:58PM 32.0311 -96.7190 162° South 477 549 21,600 2,040 Climbing FlightAware ADS-B (KHOU)
09:59PM 31.9652 -96.6941 162° South 484 557 22,700 2,100 Climbing FlightAware ADS-B (KHOU)
09:59PM 31.9573 -96.6910 162° South 485 558 22,800 2,040 Climbing FlightAware ADS-B
09:59PM 31.9035 -96.6707 162° South 490 564 23,700 1,980 Climbing FlightAware ADS-B (KHOU)
10:00PM 31.8646 -96.6558 162° South 492 566 24,200 1,800 Climbing FlightAware ADS-B
10:00PM 31.8368 -96.6446 161° South 496 571 24,600 1,800 Climbing FlightAware ADS-B (KHOU)
10:00PM 31.7756 -96.6193 161° South 502 578 25,400 1,560 Climbing FlightAware ADS-B
10:00PM 31.7737 -96.6184 160° South 503 579 25,400 1,800 Level FlightAware ADS-B (KHOU)
10:01PM 31.7097 -96.5919 161° South 503 579 26,300 1,740 Climbing FlightAware ADS-B
10:01PM 31.6896 -96.5836 161° South 503 579 26,500 1,500 Climbing FlightAware ADS-B
10:01PM 31.6208 -96.5554 161° South 514 592 27,300 1,560 Climbing FlightAware ADS-B
10:02PM 31.5530 -96.5276 161° South 518 596 28,100 1,500 Climbing FlightAware ADS-B
10:02PM 31.5300 -96.5183 161° South 522 601 28,300 1,380 Climbing FlightAware ADS-B
10:02PM 31.4883 -96.5016 161° South 525 604 28,800 1,320 Climbing FlightAware ADS-B
10:03PM 31.4386 -96.4831 162° South 530 610 29,200 1,200 Climbing FlightAware ADS-B
10:03PM 31.4149 -96.4744 163° South 532 612 29,400 960 Climbing FlightAware ADS-B
10:03PM 31.3679 -96.4544 160° South 539 620 29,700 960 Climbing FlightAware ADS-B
10:03PM 31.3474 -96.4395 148° Southeast 544 626 29,900 1,380 Climbing FlightAware ADS-B
10:04PM 31.3274 -96.4216 143° Southeast 546 628 30,200 1,620 Climbing FlightAware ADS-B
10:04PM 31.2690 -96.3659 141° Southeast 546 628 31,000 1,380 Climbing FlightAware ADS-B
10:05PM 31.2117 -96.3073 139° Southeast 549 632 31,600 1,200 Climbing FlightAware ADS-B
10:05PM 31.1932 -96.2868 137° Southeast 552 635 31,800 1,200 Climbing FlightAware ADS-B
10:05PM 31.1576 -96.2455 135° Southeast 552 635 32,200 1,380 Climbing FlightAware ADS-B
10:05PM 31.1389 -96.2235 135° Southeast 553 636 32,500 1,200 Climbing FlightAware ADS-B
10:06PM 31.1026 -96.1811 135° Southeast 555 639 32,800 480 Climbing FlightAware ADS-B
10:06PM 31.0306 -96.0980 135° Southeast 560 644 33,000 120 Climbing FlightAware ADS-B
10:07PM 30.9744 -96.0335 135° Southeast 561 646 33,000  Level FlightAware ADS-B
10:07PM 30.9189 -95.9703 136° Southeast 561 646 33,000  Level FlightAware ADS-B
10:08PM 30.8625 -95.9063 136° Southeast 559 643 33,000  Level FlightAware ADS-B
10:08PM 30.8080 -95.8447 136° Southeast 560 644 33,000  Level FlightAware ADS-B
10:09PM 30.7519 -95.7814 136° Southeast 561 646 33,000  Level FlightAware ADS-B
10:09PM 30.6954 -95.7178 136° Southeast 561 646 33,000  Level FlightAware ADS-B
10:10PM 30.6409 -95.6566 136° Southeast 561 646 33,000  Level FlightAware ADS-B
10:10PM 30.5851 -95.5940 136° Southeast 561 646 33,000  Level FlightAware ADS-B
10:11PM 30.5283 -95.5303 136° Southeast 564 649 33,000  Level FlightAware ADS-B
10:11PM 30.4715 -95.4668 136° Southeast 565 650 33,000  Level FlightAware ADS-B
10:12PM 30.4188 -95.4080 136° Southeast 565 650 33,000  Level FlightAware ADS-B
10:12PM 30.4024 -95.3897 136° Southeast 564 649 33,000  Level FlightAware ADS-B
10:12PM 30.3596 -95.3419 136° Southeast 565 650 33,000  Level FlightAware ADS-B
10:13PM 30.3028 -95.2787 136° Southeast 565 650 33,000  Level FlightAware ADS-B
10:13PM 30.2807 -95.2542 136° Southeast 565 650 33,000  Level FlightAware ADS-B
10:13PM 30.2465 -95.2162 136° Southeast 566 651 33,000  Level FlightAware ADS-B
10:14PM 30.2035 -95.1685 136° Southeast 567 652 33,000  Level FlightAware ADS-B
10:14PM 30.1928 -95.1565 136° Southeast 567 652 33,000  Level FlightAware ADS-B
10:14PM 30.1381 -95.0959 136° Southeast 567 652 33,000  Level FlightAware ADS-B
10:15PM 30.0774 -95.0287 136° Southeast 568 654 33,000  Level FlightAware ADS-B
10:15PM 30.0563 -95.0055 136° Southeast 568 654 33,000  Level FlightAware ADS-B
10:15PM 30.0193 -94.9646 136° Southeast 570 656 33,000  Level FlightAware ADS-B
10:16PM 29.9739 -94.9146 136° Southeast 568 654 33,000  Level FlightAware ADS-B
10:16PM 29.9623 -94.9018 136° Southeast 569 655 33,000  Level FlightAware ADS-B
10:16PM 29.9056 -94.8394 136° Southeast 570 656 33,000  Level FlightAware ADS-B
10:17PM 29.8488 -94.7769 136° Southeast 571 657 33,000  Level FlightAware ADS-B
10:17PM 29.8213 -94.7468 136° Southeast 570 656 33,000  Level FlightAware ADS-B
10:17PM 29.7920 -94.7148 136° Southeast 572 658 33,000  Level FlightAware ADS-B
10:18PM 29.7464 -94.6647 136° Southeast 571 657 33,000  Level FlightAware ADS-B
10:18PM 29.7349 -94.6521 136° Southeast 572 658 33,000  Level FlightAware ADS-B
10:18PM 29.6785 -94.5905 136° Southeast 572 658 33,000  Level FlightAware ADS-B
10:19PM 29.6190 -94.5256 136° Southeast 570 656 33,000  Level FlightAware ADS-B
10:19PM 29.5927 -94.4968 137° Southeast 569 655 33,000  Level FlightAware ADS-B
10:19PM 29.5609 -94.4623 137° Southeast 570 656 33,000  Level FlightAware ADS-B
10:20PM 29.5340 -94.4330 137° Southeast 569 655 33,000  Level FlightAware ADS-B
10:20PM 29.5049 -94.4014 137° Southeast 570 656 33,000  Level FlightAware ADS-B
10:20PM 29.4478 -94.3394 137° Southeast 570 656 33,000  Level FlightAware ADS-B
10:21PM 29.3911 -94.2779 137° Southeast 570 656 33,000  Level FlightAware ADS-B
10:21PM 29.3324 -94.2143 137° Southeast 570 656 33,000  Level FlightAware ADS-B
10:22PM 29.2781 -94.1556 137° Southeast 570 656 33,000  Level FlightAware ADS-B
10:22PM 29.2186 -94.0914 137° Southeast 569 655 33,000  Level FlightAware ADS-B
10:23PM 29.1602 -94.0285 137° Southeast 569 655 33,000  Level FlightAware ADS-B
10:23PM 29.1338 -94.0001 137° Southeast 570 656 33,000  Level FlightAware ADS-B
10:24PM 29.0317 -93.8889 137° Southeast 565 650 33,000  Level Houston Center
10:25PM 28.9261 -93.7778 137° Southeast 573 659 33,000  Level Houston Center
10:26PM 28.7978 -93.6403 137° Southeast 575 662 33,000  Level Houston Center
10:27PM 28.6694 -93.5039 137° Southeast 578 665 33,000  Level Houston Center
10:28PM 28.5628 -93.3897 137° Southeast 578 665 33,000  Level Houston Center
10:29PM 28.4447 -93.2644 137° Southeast 580 667 33,000  Level Houston Center
10:30PM 28.3156 -93.1300 137° Southeast 582 670 33,000 -60 Level Houston Center
10:31PM 28.1964 -93.0058 137° Southeast 582 670 32,900  Descending Houston Center
10:32PM 28.0786 -92.8811 137° Southeast 581 669 33,000  Climbing Houston Center
10:33PM 27.9589 -92.7561 137° Southeast 584 672 33,000 -60 Level Houston Center
10:34PM 27.8408 -92.6308 137° Southeast 583 671 32,900 -60 Descending Houston Center
10:35PM 27.7197 -92.5089 138° Southeast 584 672 32,900  Level Houston Center
10:36PM 27.6006 -92.3853 137° Southeast 584 672 33,000  Climbing Houston Center
10:37PM 27.4806 -92.2622 138° Southeast 586 674 32,900  Descending Houston Center
10:38PM 27.3367 -92.1156 138° Southeast 583 671 33,000  Climbing Houston Center
10:39PM 27.2167 -91.9922 138° Southeast 584 672 32,900  Descending Houston Center
10:41PM 27.0831 -91.8653 144° Southeast  Level FlightAware Approximate
10:48PM 26.3128 -91.2540 145° Southeast  Level FlightAware Approximate
10:49PM 26.2026 -91.1671 145° Southeast  Level FlightAware Approximate
10:50PM 26.0923 -91.0803 145° Southeast  Level FlightAware Approximate
10:51PM 25.9819 -90.9938 145° Southeast  Level FlightAware Approximate
10:52PM 25.8715 -90.9073 145° Southeast  Level FlightAware Approximate
10:53PM 25.7611 -90.8211 145° Southeast  Level FlightAware Approximate
10:54PM 25.6506 -90.7350 145° Southeast  Level FlightAware Approximate
10:55PM 25.5401 -90.6491 145° Southeast  Level FlightAware Approximate
10:56PM 25.4295 -90.5633 145° Southeast  Level FlightAware Approximate
10:57PM 25.3188 -90.4777 145° Southeast  Level FlightAware Approximate
10:58PM 25.2082 -90.3922 145° Southeast  Level FlightAware Approximate
10:59PM 25.0974 -90.3069 145° Southeast  Level FlightAware Approximate
11:00PM 24.9866 -90.2218 145° Southeast  Level FlightAware Approximate
11:01PM 24.8758 -90.1368 145° Southeast  Level FlightAware Approximate
11:02PM 24.7649 -90.0519 145° Southeast  Level FlightAware Approximate
11:03PM 24.6564 -89.9691 145° Southeast  Level FlightAware Approximate
11:04PM 24.5479 -89.8864 145° Southeast  Level FlightAware Approximate
11:05PM 24.4407 -89.8021 146° Southeast  Level FlightAware Approximate
11:06PM 24.3309 -89.7216 146° Southeast  Level FlightAware Approximate
11:07PM 24.2210 -89.6413 146° Southeast  Level FlightAware Approximate
11:08PM 24.1111 -89.5612 146° Southeast  Level FlightAware Approximate
11:09PM 24.0019 -89.4801 145° Southeast  Level FlightAware Approximate
11:10PM 23.8934 -89.3977 145° Southeast  Level FlightAware Approximate
11:11PM 23.7849 -89.3155 145° Southeast  Level FlightAware Approximate
11:12PM 23.6764 -89.2334 145° Southeast  Level FlightAware Approximate
11:13PM 23.5678 -89.1514 145° Southeast  Level FlightAware Approximate
11:14PM 23.4592 -89.0696 145° Southeast  Level FlightAware Approximate
11:15PM 23.3506 -88.9879 145° Southeast  Level FlightAware Approximate
11:16PM 23.2419 -88.9063 145° Southeast  Level FlightAware Approximate
11:17PM 23.1333 -88.8246 145° Southeast  Level FlightAware Approximate
11:18PM 23.0252 -88.7423 145° Southeast  Level FlightAware Approximate
11:19PM 22.9170 -88.6602 145° Southeast  Level FlightAware Approximate
11:20PM 22.8087 -88.5781 145° Southeast  Level FlightAware Approximate
11:21PM 22.7004 -88.4962 145° Southeast  Level FlightAware Approximate
11:22PM 22.6015 -88.4018 137° Southeast  Level FlightAware Approximate
11:23PM 22.5043 -88.3051 137° Southeast  Level FlightAware Approximate
11:24PM 22.4070 -88.2085 137° Southeast  Level FlightAware Approximate
11:25PM 22.3097 -88.1121 137° Southeast  Level FlightAware Approximate
11:26PM 22.2123 -88.0158 138° Southeast  Level FlightAware Approximate
11:27PM 22.1149 -87.9196 138° Southeast  Level FlightAware Approximate
11:28PM 22.0174 -87.8236 138° Southeast  Level FlightAware Approximate
11:29PM 21.9198 -87.7277 138° Southeast  Level FlightAware Approximate
11:30PM 21.8222 -87.6319 138° Southeast  Level FlightAware Approximate
11:31PM 21.7245 -87.5363 138° Southeast  Level FlightAware Approximate
11:32PM 21.6268 -87.4408 138° Southeast  Level FlightAware Approximate
11:33PM 21.5290 -87.3454 138° Southeast  Level FlightAware Approximate
11:34PM 21.4311 -87.2503 138° Southeast  Level FlightAware Approximate
11:35PM 21.3330 -87.1553 138° Southeast  Level FlightAware Approximate
11:36PM 21.2350 -87.0605 138° Southeast  Level FlightAware Approximate
11:37PM 21.1369 -86.9658 138° Southeast  Level FlightAware Approximate
11:38PM 21.0387 -86.8712 138° Southeast  Level FlightAware Approximate
11:39PM 20.9409 -86.7761 138° Southeast  Level FlightAware Approximate
11:40PM 20.8433 -86.6811 138° Southeast  Level FlightAware Approximate
11:41PM 20.7455 -86.5861 138° Southeast  Level FlightAware Approximate
11:42PM 20.6478 -86.4913 138° Southeast  Level FlightAware Approximate
11:43PM 20.5499 -86.3966 138° Southeast  Level FlightAware Approximate
11:44PM 20.4521 -86.3020 138° Southeast  Level FlightAware Approximate
11:45PM 20.3541 -86.2076 138° Southeast  Level FlightAware Approximate
11:46PM 20.2562 -86.1132 138° Southeast  Level FlightAware Approximate
11:47PM 20.1581 -86.0190 138° Southeast  Level FlightAware Approximate
11:48PM 20.0600 -85.9249 138° Southeast  Level FlightAware Approximate
11:49PM 19.9616 -85.8313 138° Southeast  Level FlightAware Approximate
11:50PM 19.8629 -85.7381 138° Southeast  Level FlightAware Approximate
11:51PM 19.7641 -85.6451 138° Southeast  Level FlightAware Approximate
11:52PM 19.6652 -85.5521 138° Southeast  Level FlightAware Approximate
11:53PM 19.5663 -85.4593 138° Southeast  Level FlightAware Approximate
11:54PM 19.4674 -85.3665 139° Southeast  Level FlightAware Approximate
11:55PM 19.3684 -85.2739 139° Southeast  Level FlightAware Approximate
11:56PM 19.2694 -85.1814 139° Southeast  Level FlightAware Approximate
11:57PM 19.1703 -85.0890 139° Southeast  Level FlightAware Approximate
11:58PM 19.0712 -84.9967 139° Southeast  Level FlightAware Approximate
11:59PM 18.9720 -84.9046 139° Southeast  Level FlightAware Approximate
12:00AM 18.8728 -84.8125 139° Southeast  Level FlightAware Approximate
12:01AM 18.7735 -84.7206 139° Southeast  Level FlightAware Approximate
12:02AM 18.6742 -84.6287 139° Southeast  Level FlightAware Approximate
12:03AM 18.5749 -84.5370 139° Southeast  Level FlightAware Approximate
12:04AM 18.4866 -84.4352 123° Southeast  Level FlightAware Approximate
12:05AM 18.4133 -84.3194 125° Southeast  Level FlightAware Approximate
12:06AM 18.3382 -84.2050 125° Southeast  Level FlightAware Approximate
12:07AM 18.2631 -84.0907 125° Southeast  Level FlightAware Approximate
12:08AM 18.1878 -83.9765 125° Southeast  Level FlightAware Approximate
12:09AM 18.1126 -83.8624 125° Southeast  Level FlightAware Approximate
12:10AM 18.0372 -83.7483 125° Southeast  Level FlightAware Approximate
12:11AM 17.9618 -83.6344 125° Southeast  Level FlightAware Approximate
12:12AM 17.8705 -83.5346 135° Southeast  Level FlightAware Approximate
12:13AM 17.7763 -83.4374 136° Southeast  Level FlightAware Approximate
12:14AM 17.6821 -83.3404 136° Southeast  Level FlightAware Approximate
12:15AM 17.5878 -83.2434 136° Southeast  Level FlightAware Approximate
12:16AM 17.4935 -83.1466 136° Southeast  Level FlightAware Approximate
12:17AM 17.3991 -83.0498 136° Southeast  Level FlightAware Approximate
12:18AM 17.3013 -82.9569 139° Southeast  Level FlightAware Approximate
12:19AM 17.2019 -82.8660 139° Southeast  Level FlightAware Approximate
12:20AM 17.1024 -82.7752 139° Southeast  Level FlightAware Approximate
12:21AM 17.0028 -82.6845 139° Southeast  Level FlightAware Approximate
12:22AM 16.9032 -82.5940 139° Southeast  Level FlightAware Approximate
12:23AM 16.8036 -82.5035 139° Southeast  Level FlightAware Approximate
12:24AM 16.7039 -82.4131 139° Southeast  Level FlightAware Approximate
12:25AM 16.6042 -82.3227 139° Southeast  Level FlightAware Approximate
12:26AM 16.5045 -82.2325 139° Southeast  Level FlightAware Approximate
12:27AM 16.4086 -82.1381 134° Southeast  Level FlightAware Approximate
12:28AM 16.3174 -82.0386 134° Southeast  Level FlightAware Approximate
12:29AM 16.2262 -81.9392 134° Southeast  Level FlightAware Approximate
12:30AM 16.1349 -81.8399 134° Southeast  Level FlightAware Approximate
12:31AM 16.0436 -81.7407 134° Southeast  Level FlightAware Approximate
12:32AM 15.9522 -81.6416 134° Southeast  Level FlightAware Approximate
12:33AM 15.8611 -81.5429 134° Southeast  Level FlightAware Approximate
12:34AM 15.7700 -81.4443 134° Southeast  Level FlightAware Approximate
12:35AM 15.6788 -81.3458 134° Southeast  Level FlightAware Approximate
12:36AM 15.5876 -81.2474 134° Southeast  Level FlightAware Approximate
12:37AM 15.4963 -81.1491 134° Southeast  Level FlightAware Approximate
12:38AM 15.4050 -81.0508 134° Southeast  Level FlightAware Approximate
12:39AM 15.3137 -80.9527 134° Southeast  Level FlightAware Approximate
12:40AM 15.2223 -80.8546 134° Southeast  Level FlightAware Approximate
12:41AM 15.1308 -80.7566 134° Southeast  Level FlightAware Approximate
12:42AM 15.0393 -80.6587 134° Southeast  Level FlightAware Approximate
12:43AM 14.9408 -80.5690 142° Southeast  Level FlightAware Approximate
12:44AM 14.8369 -80.4854 142° Southeast  Level FlightAware Approximate
12:45AM 14.7331 -80.4020 142° Southeast  Level FlightAware Approximate
12:46AM 14.6292 -80.3186 142° Southeast  Level FlightAware Approximate
12:47AM 14.5252 -80.2353 142° Southeast  Level FlightAware Approximate
12:48AM 14.4212 -80.1520 142° Southeast  Level FlightAware Approximate
12:49AM 14.3172 -80.0689 142° Southeast  Level FlightAware Approximate
12:50AM 14.2132 -79.9858 142° Southeast  Level FlightAware Approximate
12:51AM 14.1091 -79.9028 142° Southeast  Level FlightAware Approximate
12:52AM 14.0051 -79.8199 142° Southeast  Level FlightAware Approximate
12:53AM 13.9009 -79.7371 142° Southeast  Level FlightAware Approximate
12:54AM 13.7968 -79.6542 142° Southeast  Level FlightAware Approximate
12:55AM 13.6928 -79.5713 142° Southeast  Level FlightAware Approximate
12:56AM 13.5888 -79.4885 142° Southeast  Level FlightAware Approximate
12:57AM 13.4847 -79.4057 142° Southeast  Level FlightAware Approximate
12:58AM 13.3806 -79.3230 142° Southeast  Level FlightAware Approximate
12:59AM 13.2765 -79.2404 142° Southeast  Level FlightAware Approximate
01:00AM 13.1724 -79.1579 142° Southeast  Level FlightAware Approximate
01:01AM 13.0682 -79.0754 142° Southeast  Level FlightAware Approximate
01:02AM 12.9640 -78.9930 142° Southeast  Level FlightAware Approximate
01:03AM 12.8598 -78.9106 142° Southeast  Level FlightAware Approximate
01:04AM 12.7555 -78.8283 142° Southeast  Level FlightAware Approximate
01:05AM 12.6512 -78.7461 142° Southeast  Level FlightAware Approximate
01:06AM 12.5469 -78.6640 142° Southeast  Level FlightAware Approximate
01:07AM 12.4426 -78.5819 142° Southeast  Level FlightAware Approximate
01:08AM 12.3383 -78.4999 142° Southeast  Level FlightAware Approximate
01:09AM 12.2339 -78.4180 143° Southeast  Level FlightAware Approximate
01:10AM 12.1295 -78.3361 143° Southeast  Level FlightAware Approximate
01:11AM 12.0251 -78.2543 143° Southeast  Level FlightAware Approximate
01:12AM 11.9206 -78.1725 143° Southeast  Level FlightAware Approximate
01:13AM 11.8161 -78.0909 143° Southeast  Level FlightAware Approximate
01:14AM 11.7116 -78.0092 143° Southeast  Level FlightAware Approximate
01:15AM 11.6071 -77.9277 143° Southeast  Level FlightAware Approximate
01:16AM 11.5026 -77.8462 143° Southeast  Level FlightAware Approximate
01:17AM 11.3980 -77.7647 143° Southeast  Level FlightAware Approximate
01:18AM 11.2934 -77.6833 143° Southeast  Level FlightAware Approximate
01:19AM 11.1888 -77.6020 143° Southeast  Level FlightAware Approximate
01:20AM 11.0842 -77.5208 143° Southeast  Level FlightAware Approximate
01:21AM 10.9795 -77.4396 143° Southeast  Level FlightAware Approximate
01:22AM 10.8808 -77.3512 137° Southeast  Level FlightAware Approximate
01:23AM 10.7843 -77.2602 137° Southeast  Level FlightAware Approximate
01:24AM 10.6879 -77.1692 137° Southeast  Level FlightAware Approximate
01:25AM 10.5914 -77.0782 137° Southeast  Level FlightAware Approximate
01:26AM 10.4948 -76.9873 137° Southeast  Level FlightAware Approximate
01:27AM 10.3983 -76.8964 137° Southeast  Level FlightAware Approximate
01:28AM 10.3017 -76.8056 137° Southeast  Level FlightAware Approximate
01:29AM 10.2051 -76.7149 137° Southeast  Level FlightAware Approximate
01:30AM 10.1085 -76.6242 137° Southeast  Level FlightAware Approximate
01:31AM 10.0118 -76.5336 137° Southeast  Level FlightAware Approximate
01:32AM 9.9151 -76.4430 137° Southeast  Level FlightAware Approximate
01:33AM 9.8184 -76.3525 137° Southeast  Level FlightAware Approximate
01:34AM 9.7217 -76.2620 137° Southeast  Level FlightAware Approximate
01:35AM 9.6250 -76.1716 137° Southeast  Level FlightAware Approximate
01:36AM 9.5282 -76.0813 137° Southeast  Level FlightAware Approximate
01:37AM 9.4314 -75.9910 137° Southeast  Level FlightAware Approximate
01:38AM 9.3346 -75.9007 137° Southeast  Level FlightAware Approximate
01:39AM 9.2377 -75.8105 137° Southeast  Level FlightAware Approximate
01:40AM 9.1409 -75.7203 137° Southeast  Level FlightAware Approximate
01:41AM 9.0440 -75.6302 137° Southeast  Level FlightAware Approximate
01:42AM 8.9471 -75.5401 137° Southeast  Level FlightAware Approximate
01:43AM 8.8501 -75.4501 137° Southeast  Level FlightAware Approximate
01:44AM 8.7515 -75.3620 139° Southeast  Level FlightAware Approximate
01:45AM 8.6529 -75.2739 139° Southeast  Level FlightAware Approximate
01:46AM 8.5543 -75.1859 139° Southeast  Level FlightAware Approximate
01:47AM 8.4556 -75.0979 139° Southeast  Level FlightAware Approximate
01:48AM 8.3569 -75.0100 139° Southeast  Level FlightAware Approximate
01:49AM 8.2582 -74.9221 139° Southeast  Level FlightAware Approximate
01:50AM 8.1595 -74.8342 139° Southeast  Level FlightAware Approximate
01:51AM 8.0608 -74.7464 139° Southeast  Level FlightAware Approximate
01:52AM 7.9620 -74.6587 139° Southeast  Level FlightAware Approximate
01:53AM 7.8633 -74.5710 139° Southeast  Level FlightAware Approximate
01:54AM 7.7647 -74.4830 138° Southeast  Level FlightAware Approximate
01:55AM 7.6673 -74.3938 138° Southeast  Level FlightAware Approximate
01:56AM 7.5698 -74.3047 138° Southeast  Level FlightAware Approximate
01:57AM 7.4723 -74.2156 138° Southeast  Level FlightAware Approximate
01:58AM 7.3748 -74.1266 138° Southeast  Level FlightAware Approximate
01:59AM 7.2773 -74.0376 138° Southeast  Level FlightAware Approximate
02:00AM 7.1797 -73.9486 138° Southeast  Level FlightAware Approximate
02:01AM 7.0822 -73.8597 138° Southeast  Level FlightAware Approximate
02:02AM 6.9786 -73.7793 152° Southeast  Level FlightAware Approximate
02:03AM 6.8629 -73.7163 152° Southeast  Level FlightAware Approximate
02:04AM 6.7471 -73.6534 152° Southeast  Level FlightAware Approximate
02:05AM 6.6314 -73.5904 152° Southeast  Level FlightAware Approximate
02:06AM 6.5156 -73.5275 152° Southeast  Level FlightAware Approximate
02:07AM 6.3999 -73.4647 152° Southeast  Level FlightAware Approximate
02:08AM 6.2841 -73.4018 152° Southeast  Level FlightAware Approximate
02:09AM 6.1683 -73.3391 152° Southeast  Level FlightAware Approximate
02:10AM 6.0525 -73.2763 152° Southeast  Level FlightAware Approximate
02:11AM 5.9366 -73.2136 152° Southeast  Level FlightAware Approximate
02:12AM 5.8208 -73.1509 152° Southeast  Level FlightAware Approximate
02:13AM 5.7050 -73.0883 152° Southeast  Level FlightAware Approximate
02:14AM 5.5891 -73.0257 152° Southeast  Level FlightAware Approximate
02:15AM 5.4733 -72.9631 152° Southeast  Level FlightAware Approximate
02:16AM 5.3574 -72.9005 152° Southeast  Level FlightAware Approximate
02:17AM 5.2415 -72.8379 152° Southeast  Level FlightAware Approximate
02:18AM 5.1261 -72.7756 152° Southeast  Level FlightAware Approximate
02:19AM 5.0106 -72.7133 152° Southeast  Level FlightAware Approximate
02:20AM 4.8951 -72.6510 152° Southeast  Level FlightAware Approximate
02:21AM 4.7796 -72.5888 152° Southeast  Level FlightAware Approximate
02:22AM 4.6642 -72.5266 152° Southeast  Level FlightAware Approximate
02:23AM 4.5487 -72.4644 152° Southeast  Level FlightAware Approximate
02:24AM 4.4332 -72.4022 152° Southeast  Level FlightAware Approximate
02:25AM 4.3177 -72.3400 152° Southeast  Level FlightAware Approximate
02:26AM 4.2021 -72.2779 152° Southeast  Level FlightAware Approximate
02:27AM 4.0866 -72.2158 152° Southeast  Level FlightAware Approximate
02:28AM 3.9711 -72.1536 152° Southeast  Level FlightAware Approximate
02:29AM 3.8612 -72.0824 145° Southeast  Level FlightAware Approximate
02:30AM 3.7540 -72.0068 145° Southeast  Level FlightAware Approximate
02:31AM 3.6468 -71.9312 145° Southeast  Level FlightAware Approximate
02:32AM 3.5396 -71.8556 145° Southeast  Level FlightAware Approximate
02:33AM 3.4324 -71.7800 145° Southeast  Level FlightAware Approximate
02:34AM 3.3252 -71.7045 145° Southeast  Level FlightAware Approximate
02:35AM 3.2180 -71.6289 145° Southeast  Level FlightAware Approximate
02:36AM 3.1108 -71.5534 145° Southeast  Level FlightAware Approximate
02:37AM 3.0036 -71.4779 145° Southeast  Level FlightAware Approximate
02:38AM 2.8963 -71.4024 145° Southeast  Level FlightAware Approximate
02:39AM 2.7891 -71.3269 145° Southeast  Level FlightAware Approximate
02:40AM 2.6819 -71.2514 145° Southeast  Level FlightAware Approximate
02:41AM 2.5746 -71.1760 145° Southeast  Level FlightAware Approximate
02:42AM 2.4674 -71.1005 145° Southeast  Level FlightAware Approximate
02:43AM 2.3601 -71.0251 145° Southeast  Level FlightAware Approximate
02:44AM 2.2529 -70.9497 145° Southeast  Level FlightAware Approximate
02:45AM 2.1456 -70.8743 145° Southeast  Level FlightAware Approximate
02:46AM 2.0384 -70.7989 145° Southeast  Level FlightAware Approximate
02:47AM 1.9311 -70.7235 145° Southeast  Level FlightAware Approximate
02:48AM 1.8238 -70.6481 145° Southeast  Level FlightAware Approximate
02:49AM 1.7165 -70.5727 145° Southeast  Level FlightAware Approximate
02:50AM 1.6093 -70.4974 145° Southeast  Level FlightAware Approximate
02:51AM 1.5020 -70.4220 145° Southeast  Level FlightAware Approximate
02:52AM 1.3947 -70.3466 145° Southeast  Level FlightAware Approximate
02:53AM 1.2874 -70.2713 145° Southeast  Level FlightAware Approximate
02:54AM 1.1848 -70.1901 138° Southeast  Level FlightAware Approximate
02:55AM 1.0869 -70.1029 138° Southeast  Level FlightAware Approximate
02:56AM 0.9890 -70.0157 138° Southeast  Level FlightAware Approximate
02:57AM 0.8911 -69.9285 138° Southeast  Level FlightAware Approximate
02:58AM 0.7932 -69.8414 138° Southeast  Level FlightAware Approximate
02:59AM 0.6952 -69.7542 138° Southeast  Level FlightAware Approximate
03:00AM 0.5973 -69.6670 138° Southeast  Level FlightAware Approximate
03:01AM 0.4994 -69.5799 138° Southeast  Level FlightAware Approximate
03:02AM 0.4015 -69.4927 138° Southeast  Level FlightAware Approximate
03:03AM 0.3036 -69.4056 138° Southeast  Level FlightAware Approximate
03:04AM 0.2057 -69.3184 138° Southeast  Level FlightAware Approximate
03:05AM 0.1077 -69.2313 138° Southeast  Level FlightAware Approximate
03:06AM 0.0098 -69.1441 138° Southeast  Level FlightAware Approximate
03:07AM -0.0881 -69.0570 138° Southeast  Level FlightAware Approximate
03:08AM -0.1860 -68.9698 138° Southeast  Level FlightAware Approximate
03:09AM -0.2839 -68.8827 138° Southeast  Level FlightAware Approximate
03:10AM -0.3819 -68.7955 138° Southeast  Level FlightAware Approximate
03:11AM -0.4798 -68.7084 138° Southeast  Level FlightAware Approximate
03:12AM -0.5777 -68.6212 138° Southeast  Level FlightAware Approximate
03:13AM -0.6756 -68.5340 138° Southeast  Level FlightAware Approximate
03:14AM -0.7737 -68.4467 138° Southeast  Level FlightAware Approximate
03:15AM -0.8717 -68.3594 138° Southeast  Level FlightAware Approximate
03:16AM -0.9698 -68.2721 138° Southeast  Level FlightAware Approximate
03:17AM -1.0679 -68.1847 138° Southeast  Level FlightAware Approximate
03:18AM -1.1660 -68.0974 138° Southeast  Level FlightAware Approximate
03:19AM -1.2640 -68.0100 138° Southeast  Level FlightAware Approximate
03:20AM -1.3621 -67.9227 138° Southeast  Level FlightAware Approximate
03:21AM -1.4602 -67.8353 138° Southeast  Level FlightAware Approximate
03:22AM -1.5582 -67.7480 138° Southeast  Level FlightAware Approximate
03:23AM -1.6563 -67.6606 138° Southeast  Level FlightAware Approximate
03:24AM -1.7544 -67.5732 138° Southeast  Level FlightAware Approximate
03:25AM -1.8524 -67.4858 138° Southeast  Level FlightAware Approximate
03:26AM -1.9505 -67.3984 138° Southeast  Level FlightAware Approximate
03:27AM -2.0485 -67.3110 138° Southeast  Level FlightAware Approximate
03:28AM -2.1465 -67.2236 138° Southeast  Level FlightAware Approximate
03:29AM -2.2446 -67.1362 138° Southeast  Level FlightAware Approximate
03:30AM -2.3426 -67.0487 138° Southeast  Level FlightAware Approximate
03:31AM -2.4406 -66.9613 138° Southeast  Level FlightAware Approximate
03:32AM -2.5386 -66.8738 138° Southeast  Level FlightAware Approximate
03:33AM -2.6367 -66.7863 138° Southeast  Level FlightAware Approximate
03:34AM -2.7346 -66.6988 138° Southeast  Level FlightAware Approximate
03:35AM -2.8326 -66.6113 138° Southeast  Level FlightAware Approximate
03:36AM -2.9306 -66.5238 138° Southeast  Level FlightAware Approximate
03:37AM -3.0286 -66.4362 138° Southeast  Level FlightAware Approximate
03:38AM -3.1266 -66.3487 138° Southeast  Level FlightAware Approximate
03:39AM -3.2246 -66.2611 138° Southeast  Level FlightAware Approximate
03:40AM -3.3225 -66.1735 138° Southeast  Level FlightAware Approximate
03:41AM -3.4205 -66.0859 138° Southeast  Level FlightAware Approximate
03:42AM -3.5184 -65.9983 138° Southeast  Level FlightAware Approximate
03:43AM -3.6164 -65.9106 138° Southeast  Level FlightAware Approximate
03:44AM -3.7143 -65.8230 138° Southeast  Level FlightAware Approximate
03:45AM -3.8122 -65.7353 138° Southeast  Level FlightAware Approximate
03:46AM -3.9101 -65.6476 138° Southeast  Level FlightAware Approximate
03:47AM -4.0080 -65.5599 138° Southeast  Level FlightAware Approximate
03:48AM -4.1059 -65.4721 138° Southeast  Level FlightAware Approximate
03:49AM -4.2038 -65.3844 138° Southeast  Level FlightAware Approximate
03:50AM -4.3017 -65.2966 138° Southeast  Level FlightAware Approximate
03:51AM -4.3995 -65.2088 138° Southeast  Level FlightAware Approximate
03:52AM -4.4974 -65.1209 138° Southeast  Level FlightAware Approximate
03:53AM -4.5952 -65.0331 138° Southeast  Level FlightAware Approximate
03:54AM -4.6930 -64.9452 138° Southeast  Level FlightAware Approximate
03:55AM -4.7909 -64.8573 138° Southeast  Level FlightAware Approximate
03:56AM -4.8887 -64.7693 138° Southeast  Level FlightAware Approximate
03:57AM -4.9865 -64.6814 138° Southeast  Level FlightAware Approximate
03:58AM -5.0843 -64.5934 138° Southeast  Level FlightAware Approximate
03:59AM -5.1821 -64.5054 138° Southeast  Level FlightAware Approximate
04:00AM -5.2798 -64.4174 138° Southeast  Level FlightAware Approximate
04:01AM -5.3776 -64.3293 138° Southeast  Level FlightAware Approximate
04:02AM -5.4753 -64.2412 138° Southeast  Level FlightAware Approximate
04:03AM -5.5730 -64.1531 138° Southeast  Level FlightAware Approximate
04:04AM -5.6707 -64.0649 138° Southeast  Level FlightAware Approximate
04:05AM -5.7684 -63.9768 138° Southeast  Level FlightAware Approximate
04:06AM -5.8661 -63.8885 138° Southeast  Level FlightAware Approximate
04:07AM -5.9638 -63.8003 138° Southeast  Level FlightAware Approximate
04:08AM -6.0615 -63.7120 138° Southeast  Level FlightAware Approximate
04:09AM -6.1591 -63.6237 138° Southeast  Level FlightAware Approximate
04:10AM -6.2567 -63.5354 138° Southeast  Level FlightAware Approximate
04:11AM -6.3543 -63.4470 138° Southeast  Level FlightAware Approximate
04:12AM -6.4519 -63.3586 138° Southeast  Level FlightAware Approximate
04:13AM -6.5495 -63.2702 138° Southeast  Level FlightAware Approximate
04:14AM -6.6471 -63.1817 138° Southeast  Level FlightAware Approximate
04:15AM -6.7446 -63.0932 138° Southeast  Level FlightAware Approximate
04:16AM -6.8422 -63.0047 138° Southeast  Level FlightAware Approximate
04:17AM -6.9397 -62.9161 138° Southeast  Level FlightAware Approximate
04:18AM -7.0372 -62.8275 138° Southeast  Level FlightAware Approximate
04:19AM -7.1345 -62.7390 138° Southeast  Level FlightAware Approximate
04:20AM -7.2318 -62.6504 138° Southeast  Level FlightAware Approximate
04:21AM -7.3291 -62.5619 138° Southeast  Level FlightAware Approximate
04:22AM -7.4264 -62.4732 138° Southeast  Level FlightAware Approximate
04:23AM -7.5236 -62.3846 138° Southeast  Level FlightAware Approximate
04:24AM -7.6208 -62.2959 138° Southeast  Level FlightAware Approximate
04:25AM -7.7181 -62.2072 138° Southeast  Level FlightAware Approximate
04:26AM -7.8152 -62.1184 138° Southeast  Level FlightAware Approximate
04:27AM -7.9124 -62.0296 138° Southeast  Level FlightAware Approximate
04:28AM -8.0096 -61.9407 138° Southeast  Level FlightAware Approximate
04:29AM -8.1067 -61.8518 138° Southeast  Level FlightAware Approximate
04:30AM -8.2038 -61.7629 138° Southeast  Level FlightAware Approximate
04:31AM -8.3009 -61.6739 138° Southeast  Level FlightAware Approximate
04:32AM -8.3980 -61.5849 138° Southeast  Level FlightAware Approximate
04:33AM -8.4951 -61.4958 138° Southeast  Level FlightAware Approximate
04:34AM -8.5921 -61.4067 138° Southeast  Level FlightAware Approximate
04:35AM -8.6891 -61.3175 138° Southeast  Level FlightAware Approximate
04:36AM -8.7861 -61.2283 138° Southeast  Level FlightAware Approximate
04:37AM -8.8831 -61.1391 138° Southeast  Level FlightAware Approximate
04:38AM -8.9801 -61.0498 138° Southeast  Level FlightAware Approximate
04:39AM -9.0770 -60.9604 138° Southeast  Level FlightAware Approximate
04:40AM -9.1739 -60.8710 138° Southeast  Level FlightAware Approximate
04:41AM -9.2708 -60.7816 138° Southeast  Level FlightAware Approximate
04:42AM -9.3677 -60.6921 138° Southeast  Level FlightAware Approximate
04:43AM -9.4645 -60.6025 138° Southeast  Level FlightAware Approximate
04:44AM -9.5613 -60.5129 138° Southeast  Level FlightAware Approximate
04:45AM -9.6581 -60.4233 138° Southeast  Level FlightAware Approximate
04:46AM -9.7549 -60.3336 138° Southeast  Level FlightAware Approximate
04:47AM -9.8517 -60.2438 138° Southeast  Level FlightAware Approximate
04:48AM -9.9484 -60.1540 138° Southeast  Level FlightAware Approximate
04:49AM -10.0451 -60.0641 138° Southeast  Level FlightAware Approximate
04:50AM -10.1418 -59.9742 138° Southeast  Level FlightAware Approximate
04:51AM -10.2384 -59.8843 138° Southeast  Level FlightAware Approximate
04:52AM -10.3350 -59.7942 137° Southeast  Level FlightAware Approximate
04:53AM -10.4317 -59.7042 137° Southeast  Level FlightAware Approximate
04:54AM -10.5282 -59.6140 137° Southeast  Level FlightAware Approximate
04:55AM -10.6248 -59.5238 137° Southeast  Level FlightAware Approximate
04:56AM -10.7213 -59.4336 137° Southeast  Level FlightAware Approximate
04:57AM -10.8178 -59.3433 137° Southeast  Level FlightAware Approximate
04:58AM -10.9143 -59.2529 137° Southeast  Level FlightAware Approximate
04:59AM -11.0108 -59.1625 137° Southeast  Level FlightAware Approximate
05:00AM -11.1072 -59.0720 137° Southeast  Level FlightAware Approximate
05:01AM -11.2036 -58.9815 137° Southeast  Level FlightAware Approximate
05:02AM -11.2999 -58.8909 137° Southeast  Level FlightAware Approximate
05:03AM -11.3963 -58.8002 137° Southeast  Level FlightAware Approximate
05:04AM -11.4926 -58.7095 137° Southeast  Level FlightAware Approximate
05:05AM -11.5889 -58.6187 137° Southeast  Level FlightAware Approximate
05:06AM -11.6852 -58.5279 137° Southeast  Level FlightAware Approximate
05:07AM -11.7814 -58.4370 137° Southeast  Level FlightAware Approximate
05:08AM -11.8776 -58.3460 137° Southeast  Level FlightAware Approximate
05:09AM -11.9738 -58.2549 137° Southeast  Level FlightAware Approximate
05:10AM -12.0699 -58.1638 137° Southeast  Level FlightAware Approximate
05:10AM -12.6529 -56.1107 137° Southeast 465 535 37,000  Level FlightAware ADS-B (EPSY / SZY)
05:11AM -12.1660 -58.0727 137° Southeast  Level FlightAware Approximate
05:11AM -12.6661 -56.0977 136° Southeast 466 536 37,000  Level FlightAware ADS-B (EPSY / SZY)
05:11AM -12.7681 -55.9967 136° Southeast 466 536 37,000  Level FlightAware ADS-B (EPSY / SZY)
05:12AM -12.8401 -55.9250 136° Southeast 467 537 37,000  Level FlightAware ADS-B (EPSY / SZY)
05:13AM -12.9128 -55.8526 136° Southeast 469 540 37,000  Level FlightAware ADS-B (EPSY / SZY)
05:14AM -12.9579 -55.8079 136° Southeast 469 540 37,000  Level FlightAware ADS-B (EPSY / SZY)
05:14AM -13.0069 -55.7590 136° Southeast 470 541 37,000  Level FlightAware ADS-B (EPSY / SZY)
05:15AM -13.0966 -55.6697 136° Southeast 471 542 37,000  Level FlightAware ADS-B (EPSY / SZY)
05:16AM -13.1440 -55.6226 136° Southeast 470 541 37,000  Level FlightAware ADS-B (EPSY / SZY)
05:16AM -13.2154 -55.5513 136° Southeast 471 542 37,000  Level FlightAware ADS-B (EPSY / SZY)
05:17AM -13.2875 -55.4793 136° Southeast 472 543 37,000  Level FlightAware ADS-B (EPSY / SZY)
05:18AM -13.3462 -55.4206 136° Southeast 470 541 37,000  Level FlightAware ADS-B (EPSY / SZY)
05:19AM -13.4496 -55.3172 136° Southeast 470 541 37,000  Level FlightAware ADS-B (EPSY / SZY)
05:19AM -13.4985 -55.2682 136° Southeast 470 541 37,000  Level FlightAware ADS-B (EPSY / SZY)
05:20AM -13.5371 -55.2295 136° Southeast 472 543 37,000  Level FlightAware ADS-B (EPSY / SZY)
05:21AM -13.6117 -55.1548 136° Southeast 472 543 37,000  Level FlightAware ADS-B (EPSY / SZY)
05:21AM -13.6854 -55.0808 136° Southeast 474 545 37,000  Level FlightAware ADS-B (EPSY / SZY)
05:22AM -13.7522 -55.0138 136° Southeast 474 545 37,000  Level FlightAware ADS-B (EPSY / SZY)
05:23AM -13.7975 -54.9682 136° Southeast 474 545 37,000  Level FlightAware ADS-B (EPSY / SZY)
05:23AM -13.8737 -54.8917 136° Southeast 474 545 37,000  Level FlightAware ADS-B (EPSY / SZY)
05:24AM -13.9449 -54.8200 136° Southeast 473 544 37,000  Level FlightAware ADS-B (EPSY / SZY)
05:25AM -13.9920 -54.7724 136° Southeast 475 547 37,000  Level FlightAware ADS-B (EPSY / SZY)
05:25AM -14.0392 -54.7249 136° Southeast 474 545 37,000  Level FlightAware ADS-B (EPSY / SZY)
05:26AM -14.0944 -54.6692 136° Southeast 472 543 37,000  Level FlightAware ADS-B (EPSY / SZY)
05:28AM -14.2688 -54.5261 142° Southeast  Level Estimated
05:29AM -14.3792 -54.4401 141° Southeast  Level Estimated
05:30AM -14.4817 -54.3557 141° Southeast  Level Estimated
05:31AM -14.5841 -54.2712 141° Southeast  Level Estimated
05:32AM -14.6865 -54.1867 141° Southeast  Level Estimated
05:33AM -14.7889 -54.1020 141° Southeast  Level Estimated
05:34AM -14.8913 -54.0173 141° Southeast  Level Estimated
05:35AM -14.9936 -53.9325 141° Southeast  Level Estimated
05:36AM -15.0959 -53.8476 141° Southeast  Level Estimated
05:37AM -15.1981 -53.7626 141° Southeast  Level Estimated
05:38AM -15.3004 -53.6776 141° Southeast  Level Estimated
05:39AM -15.4025 -53.5924 141° Southeast  Level Estimated
05:40AM -15.5047 -53.5072 141° Southeast  Level Estimated
05:41AM -15.6068 -53.4219 141° Southeast  Level Estimated
05:42AM -15.7089 -53.3365 141° Southeast  Level Estimated
05:43AM -15.8110 -53.2510 141° Southeast  Level Estimated
05:44AM -15.9130 -53.1655 141° Southeast  Level Estimated
05:45AM -16.0150 -53.0798 141° Southeast  Level Estimated
05:46AM -16.1166 -52.9944 141° Southeast  Level Estimated
05:47AM -16.2182 -52.9089 141° Southeast  Level Estimated
05:48AM -16.3197 -52.8233 141° Southeast  Level Estimated
05:49AM -16.4212 -52.7376 141° Southeast  Level Estimated
05:50AM -16.5227 -52.6518 141° Southeast  Level Estimated
05:51AM -16.6241 -52.5659 141° Southeast  Level Estimated
05:52AM -16.7255 -52.4799 141° Southeast  Level Estimated
05:53AM -16.8269 -52.3939 141° Southeast  Level Estimated
05:54AM -16.9282 -52.3077 141° Southeast  Level Estimated
05:55AM -17.0295 -52.2215 141° Southeast  Level Estimated
05:56AM -17.1307 -52.1352 141° Southeast  Level Estimated
05:57AM -17.2319 -52.0487 141° Southeast  Level Estimated
05:58AM -17.3331 -51.9622 141° Southeast  Level Estimated
05:59AM -17.4342 -51.8756 141° Southeast  Level Estimated
06:00AM -17.5354 -51.7888 141° Southeast  Level Estimated
06:01AM -17.6364 -51.7020 141° Southeast  Level Estimated
06:02AM -17.7374 -51.6151 141° Southeast  Level Estimated
06:03AM -17.8384 -51.5281 141° Southeast  Level Estimated
06:04AM -17.9394 -51.4410 141° Southeast  Level Estimated
06:05AM -18.0403 -51.3538 141° Southeast  Level Estimated
06:06AM -18.1412 -51.2665 141° Southeast  Level Estimated
06:07AM -18.2420 -51.1791 141° Southeast  Level Estimated
06:08AM -18.3428 -51.0916 141° Southeast  Level Estimated
06:09AM -18.4435 -51.0039 140° Southeast  Level Estimated
06:10AM -18.5442 -50.9162 140° Southeast  Level Estimated
06:11AM -18.6449 -50.8284 140° Southeast  Level Estimated
06:12AM -18.7455 -50.7405 140° Southeast  Level Estimated
06:13AM -18.8461 -50.6525 140° Southeast  Level Estimated
06:14AM -18.9467 -50.5643 140° Southeast  Level Estimated
06:15AM -19.0472 -50.4761 140° Southeast  Level Estimated
06:16AM -19.1477 -50.3877 140° Southeast  Level Estimated
06:17AM -19.2481 -50.2993 140° Southeast  Level Estimated
06:18AM -19.3485 -50.2107 140° Southeast  Level Estimated
06:19AM -19.4488 -50.1221 140° Southeast  Level Estimated
06:20AM -19.5491 -50.0333 140° Southeast  Level Estimated
06:21AM -19.6493 -49.9444 140° Southeast  Level Estimated
06:22AM -19.7495 -49.8554 140° Southeast  Level Estimated
06:23AM -19.8497 -49.7663 140° Southeast  Level Estimated
06:24AM -19.9498 -49.6770 140° Southeast  Level Estimated
06:25AM -20.0499 -49.5877 140° Southeast  Level Estimated
06:26AM -20.1499 -49.4982 140° Southeast  Level Estimated
06:27AM -20.2499 -49.4087 140° Southeast  Level Estimated
06:28AM -20.3498 -49.3190 140° Southeast  Level Estimated
06:29AM -20.4497 -49.2292 140° Southeast  Level Estimated
06:30AM -20.5496 -49.1393 140° Southeast  Level Estimated
06:31AM -20.6494 -49.0492 140° Southeast  Level Estimated
06:32AM -20.7491 -48.9591 140° Southeast  Level Estimated
06:33AM -20.8489 -48.8688 140° Southeast  Level Estimated
06:34AM -20.9485 -48.7784 140° Southeast  Level Estimated
06:35AM -21.0481 -48.6879 140° Southeast  Level Estimated
06:36AM -21.1477 -48.5973 140° Southeast  Level Estimated
06:37AM -21.2472 -48.5065 140° Southeast  Level Estimated
06:38AM -21.3467 -48.4156 140° Southeast  Level Estimated
06:39AM -21.4461 -48.3246 140° Southeast  Level Estimated
06:40AM -21.5455 -48.2335 140° Southeast  Level Estimated
06:41AM -21.6448 -48.1423 140° Southeast  Level Estimated
06:42AM -21.7440 -48.0509 139° Southeast  Level Estimated
06:43AM -21.8433 -47.9594 139° Southeast  Level Estimated
06:44AM -21.9424 -47.8677 139° Southeast  Level Estimated
06:45AM -22.0415 -47.7760 139° Southeast  Level Estimated
06:46AM -22.1406 -47.6841 139° Southeast  Level Estimated
06:47AM -22.2396 -47.5921 139° Southeast  Level Estimated
06:48AM -22.3386 -47.4999 139° Southeast  Level Estimated
06:49AM -22.4375 -47.4076 139° Southeast  Level Estimated
06:50AM -22.5364 -47.3152 139° Southeast  Level Estimated
06:51AM -22.6352 -47.2227 139° Southeast  Level Estimated
06:52AM -22.7339 -47.1300 139° Southeast  Level Estimated
06:53AM -22.8326 -47.0372 139° Southeast  Level Estimated
06:53AM -21.5586 -46.4340 139° Southeast 459 528 37,000  Level FlightAware ADS-B
06:54AM -21.7769 -46.3983 171° South 458 527 37,000 -60 Level FlightAware ADS-B
06:55AM -21.8738 -46.3823 171° South 457 526 36,900 -1,200 Descending FlightAware ADS-B
06:56AM -22.0290 -46.3569 171° South 463 533 34,700 -2,520 Descending FlightAware ADS-B
06:57AM -22.1540 -46.3330 170° South 468 539 32,000 -2,400 Descending FlightAware ADS-B
06:58AM -22.2798 -46.3114 171° South 450 518 29,900 -2,100 Descending FlightAware ADS-B
06:59AM -22.3713 -46.2960 171° South 434 499 27,900 -2,040 Descending FlightAware ADS-B
07:00AM -22.5192 -46.2871 177° South 421 484 26,000 -1,920 Descending FlightAware ADS-B
07:01AM -22.6367 -46.2854 179° South 412 474 24,000 -1,860 Descending FlightAware ADS-B
07:02AM -22.7529 -46.2835 179° South 407 468 22,300 -1,620 Descending FlightAware ADS-B
07:03AM -22.8607 -46.2817 179° South 396 456 20,900 -2,100 Descending FlightAware ADS-B
07:04AM -22.9764 -46.2798 179° South 408 470 18,200 -2,700 Descending FlightAware ADS-B
07:05AM -23.0859 -46.2781 179° South 387 445 15,500 -2,460 Descending FlightAware ADS-B
07:06AM -23.1854 -46.2775 180° South 364 419 13,300 -1,740 Descending FlightAware ADS-B
07:07AM -23.2672 -46.3414 216° Southwest 343 395 12,100 -1,200 Descending FlightAware ADS-B
07:08AM -23.3068 -46.4267 243° Southwest 321 369 10,900 -1,200 Descending FlightAware ADS-B
07:09AM -23.3446 -46.5146 245° Southwest 309 356 9,700 -1,260 Descending FlightAware ADS-B
07:10AM -23.3695 -46.5984 252° West 263 303 8,400 -1,200 Descending FlightAware ADS-B
07:11AM -23.3917 -46.6669 251° West 224 258 7,300 -1,140 Descending FlightAware ADS-B
07:12AM -23.4413 -46.6773 191° South 207 238 6,200 -1,260 Descending FlightAware ADS-B
07:13AM -23.4798 -46.6488 146° Southeast 198 228 4,900 -1,140 Descending FlightAware ADS-B
07:14AM -23.4649 -46.5836 76° East 181 208 4,000 -960 Descending FlightAware ADS-B
07:15AM -23.4519 -46.5353 74° East 164 189 3,100 -900 Descending FlightAware ADS-B
07:15AM -23.4445 -46.5083 73° East 160 184 2,700 -720 Descending FlightAware ADS-B